KLSE/LSE METAR and TAF weather

Enter ICAO airport designator
Station Type Date Time Source
KLSE METAR 2021/04/14 19:53 UTC NOAA

KLSE 141953Z 30010KT 10SM SCT024 BKN031 OVC038 05/M01 A3012 RMK AO2 SLP207 T00501006


Station Type Date Time Source
KLSE Decoded METAR 2021/04/14 19:53 UTC NOAA

LA CROSSE MUNICIPAL AIRPORT , WI, United States (KLSE) 43-53N 091-15W 200M
Apr 14, 2021 - 03:53 PM EDT / 2021.04.14 1953 UTC
Wind: from the WNW (300 degrees) at 12 MPH (10 KT):0
Visibility: 10 mile(s):0
Sky conditions: overcast
Temperature: 41.0 F (5.0 C)
Dew Point: 30.9 F (-0.6 C)
Relative Humidity: 67%
Pressure (altimeter): 30.12 in. Hg (1019 hPa)
ob: KLSE 141953Z 30010KT 10SM SCT024 BKN031 OVC038 05/M01 A3012 RMK AO2 SLP207 T00501006
cycle: 20

Station Type Date Time Source
KLSE TAF 2021/04/14 18:42 UTC NOAA

TAF KLSE 141739Z 1418/1518 29008KT P6SM VCSH OVC025
FM142200 31009KT P6SM SCT025 BKN035
FM150400 32009KT P6SM BKN015
FM151600 32009KT P6SM BKN025

Example: see airport list